Whitewater Creek, Colorado (Grand Mesa) Weather observations

Data are for observation ending at time listed.
 Day   Time    Ave.   Ave.  Ave.  Vector   Max.    Total    Solar   Ave.  
  of    of     Air    Rel.  Wind   Wind    Wind   Precip.   Rad.    Soil  
Year   Day     Temp.  Hum.  Speed  Dir.    Gust                     Temp. 
2014   (MST)    F      %     mph   deg.    mph      in.     W/m2     F   
------------------------------------------------------------------------------
 293   11:00   48.5    54   12.1   208     20.2    99999.00   99999    99999.0
 293   11:10   47.7    54   13.6   206     17.6    99999.00   99999    99999.0
 293   11:20   48.4    54   12.6   210     17.6    99999.00   99999    99999.0
 293   11:30   48.3    54   12.2   201     18.9    99999.00   99999    99999.0
 293   11:40   48.1    54   12.1   214     18.9    99999.00   99999    99999.0
 293   11:50   48.3    54   13.3   215     17.6    99999.00   99999    99999.0
 293   12:00   47.5    56   12.9   216     17.6    99999.00   99999    99999.0
 293   12:10   47.5    58   13.3   210     18.9    99999.00   99999    99999.0
 293   12:20   46.9    58   16.1   208     20.2    99999.00   99999    99999.0
 293   12:30   47.9    57   15.4   208     25.3    99999.00   99999    99999.0
 293   12:40   48.3    56   13.6   218     22.7    99999.00   99999    99999.0
 293   12:50   48.6    55   14.4   211     22.7    99999.00   99999    99999.0
 293   13:00   48.9    54   14.5   207     21.4    99999.00   99999    99999.0
 293   13:10   48.2    54   13.9   213     21.4    99999.00   99999    99999.0
 293   13:20   49.6    52   12.9   209     20.2    99999.00   99999    99999.0
 293   13:30   49.8    50   12.1   199     18.9    99999.00   99999    99999.0
 293   13:40   50.3    48   10.6   207     17.6    99999.00   99999    99999.0
 293   13:50   49.9    47   12.4   204     20.2    99999.00   99999    99999.0
 293   14:00   49.9    48   11.1   206     20.2    99999.00   99999    99999.0
 293   14:10   49.4    50   13.6   213     21.4    99999.00   99999    99999.0
 293   14:20   49.4    47   12.8   204     20.2    99999.00   99999    99999.0
 293   14:30   50.3    46   11.7   205     22.7    99999.00   99999    99999.0
 293   14:40   50.8    45   11.9   196     20.2    99999.00   99999    99999.0
 293   14:50   50.1    50    9.9   195     18.9    99999.00   99999    99999.0
 293   15:00   50.3    50    7.6   216     12.5    99999.00   99999    99999.0
 293   15:10   50.7    48    7.0   213     15.0    99999.00   99999    99999.0
 293   15:20   51.4    44    8.4   206     16.3    99999.00   99999    99999.0
 293   15:30   51.4    46    7.6   229     17.6    99999.00   99999    99999.0
 293   15:40   51.7    45    6.6   223     13.8    99999.00   99999    99999.0
 293   15:50   52.2    39    9.5   226     15.0    99999.00   99999    99999.0
 293   16:00   51.5    38   10.5   218     17.6    99999.00   99999    99999.0
 293   16:10   51.9    39    9.6   206     17.6    99999.00   99999    99999.0
 293   16:20   51.6    41    9.1   218     16.3    99999.00   99999    99999.0
 293   16:30   51.9    40    7.8   215     15.0    99999.00   99999    99999.0
 293   16:40   51.5    40    8.0   245     15.0    99999.00   99999    99999.0
 293   16:50   51.3    42    7.1   236     12.5    99999.00   99999    99999.0
 293   17:00   51.5    41    7.0   219     12.5    99999.00   99999    99999.0
 293   17:10   51.7    40    5.6   218      8.6    99999.00   99999    99999.0
 293   17:20   51.0    41    7.7   251     11.2    99999.00   99999    99999.0
 293   17:30   50.6    43    7.2   236     12.5    99999.00   99999    99999.0
 293   17:40   50.3    44    6.2   231      9.9    99999.00   99999    99999.0
 293   17:50   50.1    44    6.5   217     11.2    99999.00   99999    99999.0
 293   18:00   49.8    44    7.9   207     12.5    99999.00   99999    99999.0
 293   18:10   49.3    46    5.8   216      9.9    99999.00   99999    99999.0
 293   18:20   48.1    49    4.1   214      6.1    99999.00   99999    99999.0
 293   18:30   47.5    51    3.5   196      6.1    99999.00   99999    99999.0
 293   18:40   45.9    55    2.3   194      3.5    99999.00   99999    99999.0
 293   18:50   44.3    58    2.2   194      2.2    99999.00   99999    99999.0
 293   19:00   43.3    61    2.2   194      2.2    99999.00   99999    99999.0
 293   19:10   43.1    61    2.2   194      2.2    99999.00   99999    99999.0
 293   19:20   43.3    61    2.2   194      2.2    99999.00   99999    99999.0
 293   19:30   43.6    61    2.2   194      2.2    99999.00   99999    99999.0
 293   19:40   43.2    62    2.2   194      3.5    99999.00   99999    99999.0
 293   19:50   44.1    61    2.5   194      3.5    99999.00   99999    99999.0
 293   20:00   43.9    62    2.2   194      2.2    99999.00   99999    99999.0
 293   20:10   43.1    64    2.2   194      2.2    99999.00   99999    99999.0
 293   20:20   43.1    64    2.2   194      2.2    99999.00   99999    99999.0
 293   20:30   43.3    64    2.2   194      2.2    99999.00   99999    99999.0
 293   20:40   42.0    67    2.2   194      2.2    99999.00   99999    99999.0
 293   20:50   41.6    67    2.6   190      7.4    99999.00   99999    99999.0
 293   21:00   42.4    65    3.1   185      4.8    99999.00   99999    99999.0
 293   21:10   42.5    65    2.3   182      3.5    99999.00   99999    99999.0
 293   21:20   43.2    64    2.7   195      4.8    99999.00   99999    99999.0
 293   21:30   42.8    65    3.8   192      6.1    99999.00   99999    99999.0
 293   21:40   42.8    64    3.8   191      6.1    99999.00   99999    99999.0
 293   21:50   42.4    65    4.5   193      7.4    99999.00   99999    99999.0
 293   22:00   42.8    64    5.0   193      9.9    99999.00   99999    99999.0
 293   22:10   43.4    63    4.9   188      7.4    99999.00   99999    99999.0
 293   22:20   43.3    64    4.6   198      9.9    99999.00   99999    99999.0
 293   22:30   43.3    63    4.7   197      7.4    99999.00   99999    99999.0
 293   22:40   43.1    63    3.9   193      7.4    99999.00   99999    99999.0
 293   22:50   42.8    64    4.4   207      9.9    99999.00   99999    99999.0
 293   23:00   43.1    65    5.6   200      9.9    99999.00   99999    99999.0
 293   23:10   43.3    65    8.1   206     12.5    99999.00   99999    99999.0
 293   23:20   42.5    67    8.3   206     13.8    99999.00   99999    99999.0
 293   23:30   42.4    67    7.6   207     11.2    99999.00   99999    99999.0
 293   23:40   42.5    66    6.0   203     11.2    99999.00   99999    99999.0
 293   23:50   42.6    65    7.1   204     11.2    99999.00   99999    99999.0
 294    0:00   43.0    65    9.1   200     13.8    99999.00   99999    99999.0
 294    0:10   43.0    65   12.0   204     16.3    99999.00   99999    99999.0
 294    0:20   42.8    65   11.9   204     16.3    99999.00   99999    99999.0
 294    0:30   43.0    65   14.4   201     18.9    99999.00   99999    99999.0
 294    0:40   43.4    64   14.3   201     20.2    99999.00   99999    99999.0
 294    0:50   43.4    65   14.5   201     20.2    99999.00   99999    99999.0
 294    1:00   43.5    65   16.0   199     22.7    99999.00   99999    99999.0
 294    1:10   43.1    66   16.2   202     24.0    99999.00   99999    99999.0
 294    1:20   43.1    67   16.8   200     22.7    99999.00   99999    99999.0
 294    1:30   43.3    67   17.8   198     25.3    99999.00   99999    99999.0
 294    1:40   43.2    67   17.4   198     26.6    99999.00   99999    99999.0
 294    1:50   43.2    67   19.0   196     31.7    99999.00   99999    99999.0
 294    2:00   43.4    66   20.5   198     27.8    99999.00   99999    99999.0
 294    2:10   43.2    67   21.3   199     29.1    99999.00   99999    99999.0
 294    2:20   43.2    67   21.5   200     29.1    99999.00   99999    99999.0
 294    2:30   43.0    67   20.6   201     27.8    99999.00   99999    99999.0
 294    2:40   43.1    67   20.5   201     26.6    99999.00   99999    99999.0
 294    2:50   43.1    67   20.1   200     26.6    99999.00   99999    99999.0
 294    3:00   43.0    67   20.1   200     26.6    99999.00   99999    99999.0
 294    3:10   42.9    68   19.9   202     26.6    99999.00   99999    99999.0
 294    3:20   42.9    68   22.4   200     31.7    99999.00   99999    99999.0
 294    3:30   42.5    68   22.1   201     29.1    99999.00   99999    99999.0
 294    3:40   42.5    69   22.1   202     29.1    99999.00   99999    99999.0
 294    3:50   42.5    70   21.8   200     29.1    99999.00   99999    99999.0
 294    4:00   42.4    70   21.3   202     26.6    99999.00   99999    99999.0
 294    4:10   42.3    71   19.8   200     25.3    99999.00   99999    99999.0
 294    4:20   42.2    72   18.9   196     25.3    99999.00   99999    99999.0
 294    4:30   42.0    73   18.1   195     26.6    99999.00   99999    99999.0
 294    4:40   41.8    75   19.2   196     26.6    99999.00   99999    99999.0
 294    4:50   41.8    75   20.4   198     27.8    99999.00   99999    99999.0
 294    5:00   41.8    76   19.7   198     27.8    99999.00   99999    99999.0
 294    5:10   41.6    76   19.3   199     27.8    99999.00   99999    99999.0
 294    5:20   41.5    76   17.9   196     26.6    99999.00   99999    99999.0
 294    5:30   41.5    76   17.0   198     25.3    99999.00   99999    99999.0
 294    5:40   41.4    77   17.7   197     27.8    99999.00   99999    99999.0
 294    5:50   41.2    78   18.8   194     27.8    99999.00   99999    99999.0
 294    6:00   40.9    79   17.1   196     24.0    99999.00   99999    99999.0
 294    6:10   40.8    80   17.0   198     24.0    99999.00   99999    99999.0
 294    6:20   40.8    80   16.7   197     25.3    99999.00   99999    99999.0
 294    6:30   40.9    81   16.6   200     25.3    99999.00   99999    99999.0
 294    6:40   40.9    81   16.6   199     24.0    99999.00   99999    99999.0
 294    6:50   40.8    81   15.1   196     21.4    99999.00   99999    99999.0
 294    7:00   40.7    82   14.4   193     21.4    99999.00   99999    99999.0
 294    7:10   40.6    82   14.7   195     25.3    99999.00   99999    99999.0
 294    7:20   40.6    82   14.8   196     24.0    99999.00   99999    99999.0
 294    7:30   40.6    82   17.9   196     25.3    99999.00   99999    99999.0
 294    7:40   40.6    82   17.7   196     26.6    99999.00   99999    99999.0
 294    7:50   40.5    82   18.1   201     25.3    99999.00   99999    99999.0
 294    8:00   40.6    81   17.0   202     22.7    99999.00   99999    99999.0
 294    8:10   40.7    80   16.8   200     22.7    99999.00   99999    99999.0
 294    8:20   40.9    79   15.8   197     22.7    99999.00   99999    99999.0
 294    8:30   41.0    79   15.3   198     24.0    99999.00   99999    99999.0
 294    8:40   40.9    79   17.3   200     25.3    99999.00   99999    99999.0
 294    8:50   40.9    79   18.5   200     25.3    99999.00   99999    99999.0
 294    9:00   40.9    78   19.7   198     27.8    99999.00   99999    99999.0
 294    9:10   41.1    78   19.0   199     26.6    99999.00   99999    99999.0
 294    9:20   41.4    77   18.9   204     26.6    99999.00   99999    99999.0
 294    9:30   41.4    77   17.7   196     26.6    99999.00   99999    99999.0
 294    9:40   41.2    78   18.5   199     27.8    99999.00   99999    99999.0
 294    9:50   40.9    79   20.4   198     27.8    99999.00   99999    99999.0
 294   10:00   41.0    79   18.9   200     26.6    99999.00   99999    99999.0
 294   10:10   40.9    79   18.0   200     25.3    99999.00   99999    99999.0
 294   10:20   41.0    79   19.9   201     29.1    99999.00   99999    99999.0
 294   10:30   41.7    78   20.4   200     26.6    99999.00   99999    99999.0
 294   10:40   41.7    78   20.5   204     26.6    99999.00   99999    99999.0
 294   10:50   41.4    78   22.0   201     29.1    99999.00   99999    99999.0

Return to Whitewater Creek, Colorado graphs page.


Western Regional Climate Center,wrcc@dri.edu